createdAt,value
2017-04-07T00:00:27.944Z,0
2017-04-07T00:01:37.181Z,0
2017-04-07T00:02:46.156Z,0
2017-04-07T00:03:55.125Z,0
2017-04-07T00:05:04.100Z,0
2017-04-07T00:06:13.077Z,0
2017-04-07T00:07:22.302Z,0
2017-04-07T00:08:31.275Z,0
2017-04-07T00:09:40.249Z,0
2017-04-07T00:10:49.229Z,0
2017-04-07T00:11:58.208Z,0
2017-04-07T00:13:07.441Z,0
2017-04-07T00:14:16.427Z,0
2017-04-07T00:15:25.405Z,0
2017-04-07T00:16:34.461Z,0
2017-04-07T00:17:43.435Z,0
2017-04-07T00:18:52.720Z,0
2017-04-07T00:20:01.728Z,0
2017-04-07T00:21:10.705Z,0
2017-04-07T00:22:19.711Z,0
2017-04-07T00:23:28.690Z,0
2017-04-07T00:24:37.917Z,0
2017-04-07T00:25:46.901Z,0
2017-04-07T00:26:55.878Z,0
2017-04-07T00:28:04.849Z,0
2017-04-07T00:29:13.827Z,0
2017-04-07T00:30:23.069Z,0
2017-04-07T00:31:32.047Z,0
2017-04-07T00:32:41.022Z,0
2017-04-07T00:33:50.002Z,0
2017-04-07T00:34:58.984Z,0
2017-04-07T00:36:08.294Z,0
2017-04-07T00:37:17.262Z,0
2017-04-07T00:38:26.239Z,0
2017-04-07T00:39:35.222Z,0
2017-04-07T00:40:44.199Z,0
2017-04-07T00:41:53.422Z,0
2017-04-07T00:43:02.390Z,0
2017-04-07T00:44:11.360Z,0
2017-04-07T00:45:20.338Z,0
2017-04-07T00:46:29.312Z,0
2017-04-07T00:47:38.568Z,0
2017-04-07T00:48:47.543Z,0
2017-04-07T00:49:56.637Z,0
2017-04-07T00:51:05.588Z,0
2017-04-07T00:52:14.721Z,0
2017-04-07T00:53:23.919Z,0
2017-04-07T00:54:32.957Z,0
2017-04-07T00:55:42.032Z,0
2017-04-07T00:56:51.098Z,0
2017-04-07T00:58:00.117Z,0
2017-04-07T00:59:09.396Z,0
2017-04-07T01:00:18.348Z,0
2017-04-07T01:01:27.301Z,0
2017-04-07T01:02:36.969Z,0
2017-04-07T01:03:46.144Z,0
2017-04-07T01:04:58.544Z,0
2017-04-07T01:06:07.910Z,0
2017-04-07T01:07:18.384Z,0
2017-04-07T01:08:27.556Z,0
2017-04-07T01:09:36.514Z,0
2017-04-07T01:10:45.897Z,0
2017-04-07T01:11:55.640Z,0
2017-04-07T01:13:04.620Z,0
2017-04-07T01:14:13.847Z,0
2017-04-07T01:15:22.822Z,0
2017-04-07T01:16:32.028Z,0
2017-04-07T01:17:40.979Z,0
2017-04-07T01:18:50.084Z,0
2017-04-07T01:19:59.805Z,0
2017-04-07T01:21:09.352Z,0
2017-04-07T01:22:18.551Z,0
2017-04-07T01:23:27.939Z,0
2017-04-07T01:24:37.813Z,0
2017-04-07T01:25:47.098Z,0
2017-04-07T01:26:56.210Z,0
2017-04-07T01:28:06.516Z,0
2017-04-07T01:29:17.773Z,0
2017-04-07T01:30:27.243Z,0
2017-04-07T01:31:37.748Z,0
2017-04-07T01:32:46.702Z,0
2017-04-07T01:33:55.953Z,0
2017-04-07T01:35:05.859Z,0
2017-04-07T01:36:14.936Z,0
2017-04-07T01:37:23.880Z,0
2017-04-07T01:38:33.012Z,0
2017-04-07T01:39:42.224Z,0
2017-04-07T01:40:51.171Z,0
2017-04-07T01:42:00.210Z,0
2017-04-07T01:43:09.168Z,0
2017-04-07T01:44:18.246Z,0
2017-04-07T01:45:27.795Z,0
2017-04-07T01:46:36.838Z,0
2017-04-07T01:47:46.032Z,0
2017-04-07T01:48:55.317Z,0
2017-04-07T01:50:04.356Z,0
2017-04-07T01:51:13.729Z,0
2017-04-07T01:52:22.828Z,0
2017-04-07T01:53:32.259Z,0
2017-04-07T01:54:41.588Z,0
2017-04-07T01:55:50.558Z,0
2017-04-07T01:56:59.757Z,0
2017-04-07T01:58:08.798Z,0
2017-04-07T01:59:17.754Z,0
2017-04-07T02:00:26.710Z,0
2017-04-07T02:01:35.663Z,0
2017-04-07T02:02:45.336Z,0
2017-04-07T02:03:54.379Z,0
2017-04-07T02:05:04.033Z,0
2017-04-07T02:06:13.045Z,0
2017-04-07T02:07:22.034Z,0
2017-04-07T02:08:31.239Z,0
2017-04-07T02:09:40.974Z,0
2017-04-07T02:10:49.964Z,0
2017-04-07T02:11:59.538Z,0
2017-04-07T02:13:08.492Z,0
2017-04-07T02:14:17.715Z,0
2017-04-07T02:15:26.668Z,0
2017-04-07T02:16:35.713Z,0
2017-04-07T02:17:44.673Z,0
2017-04-07T02:18:53.644Z,0
2017-04-07T02:20:02.890Z,0
2017-04-07T02:21:11.845Z,0
2017-04-07T02:22:20.805Z,0
2017-04-07T02:23:29.757Z,0
2017-04-07T02:24:38.709Z,0
2017-04-07T02:25:47.999Z,0
2017-04-07T02:26:56.950Z,0
2017-04-07T02:28:05.908Z,0
2017-04-07T02:29:14.864Z,0
2017-04-07T02:30:23.818Z,0
2017-04-07T02:31:33.071Z,0
2017-04-07T02:32:42.022Z,0
2017-04-07T02:33:50.977Z,0
2017-04-07T02:35:00.022Z,0
2017-04-07T02:36:08.982Z,0
2017-04-07T02:37:18.183Z,0
2017-04-07T02:38:27.132Z,0
2017-04-07T02:39:36.171Z,0
2017-04-07T02:40:45.122Z,0
2017-04-07T02:41:54.085Z,0
2017-04-07T02:43:03.363Z,0
2017-04-07T02:44:12.314Z,0
2017-04-07T02:45:21.269Z,0
2017-04-07T02:46:30.221Z,0
2017-04-07T02:47:39.181Z,0
2017-04-07T02:48:48.566Z,0
2017-04-07T02:49:57.516Z,0
2017-04-07T02:51:06.475Z,0
2017-04-07T02:52:15.436Z,0
2017-04-07T02:53:24.475Z,0
2017-04-07T02:54:33.727Z,0
2017-04-07T02:55:42.688Z,0
2017-04-07T02:56:51.643Z,0
2017-04-07T02:58:00.590Z,0
2017-04-07T02:59:09.875Z,0
2017-04-07T03:00:19.078Z,0
2017-04-07T03:01:28.030Z,0
2017-04-07T03:02:36.980Z,0
2017-04-07T03:03:46.016Z,0
2017-04-07T03:04:54.996Z,0
2017-04-07T03:06:04.252Z,0
2017-04-07T03:07:13.206Z,0
2017-04-07T03:08:22.161Z,0
2017-04-07T03:09:31.115Z,0
2017-04-07T03:10:40.097Z,0
2017-04-07T03:11:49.300Z,0
2017-04-07T03:12:58.249Z,0
2017-04-07T03:14:07.291Z,0
2017-04-07T03:15:16.334Z,0
2017-04-07T03:16:25.607Z,0
2017-04-07T03:17:34.812Z,0
2017-04-07T03:18:43.765Z,0
2017-04-07T03:19:52.710Z,0
2017-04-07T03:21:01.664Z,0
2017-04-07T03:22:10.618Z,0
2017-04-07T03:23:19.883Z,0
2017-04-07T03:24:28.839Z,0
2017-04-07T03:25:37.898Z,0
2017-04-07T03:26:47.177Z,0
2017-04-07T03:27:56.139Z,0
2017-04-07T03:29:05.342Z,0
2017-04-07T03:30:14.299Z,0
2017-04-07T03:31:23.252Z,0
2017-04-07T03:32:32.210Z,0
2017-04-07T03:33:41.249Z,0
2017-04-07T03:34:50.458Z,0
2017-04-07T03:35:59.410Z,0
2017-04-07T03:37:08.368Z,0
2017-04-07T03:38:17.409Z,0
2017-04-07T03:39:26.376Z,0
2017-04-07T03:40:35.581Z,0
2017-04-07T03:41:44.535Z,0
2017-04-07T03:42:53.513Z,0
2017-04-07T03:44:02.469Z,0
2017-04-07T03:45:11.424Z,0
2017-04-07T03:46:20.623Z,0
2017-04-07T03:47:32.849Z,0
2017-04-07T03:48:41.819Z,0
2017-04-07T03:49:50.771Z,0
2017-04-07T03:50:59.725Z,0
2017-04-07T03:52:09.042Z,0
2017-04-07T03:53:17.997Z,0
2017-04-07T03:54:27.034Z,0
2017-04-07T03:55:36.015Z,0
2017-04-07T03:56:45.057Z,0
2017-04-07T03:57:54.305Z,0
2017-04-07T03:59:03.255Z,0
2017-04-07T04:00:12.297Z,0
2017-04-07T04:01:21.254Z,0
2017-04-07T04:02:30.206Z,0
2017-04-07T04:03:39.463Z,0
2017-04-07T04:04:48.412Z,0
2017-04-07T04:05:57.364Z,0
2017-04-07T04:07:06.317Z,0
2017-04-07T04:08:15.266Z,0
2017-04-07T04:09:24.548Z,0
2017-04-07T04:10:33.595Z,0
2017-04-07T04:11:42.549Z,0
2017-04-07T04:12:51.589Z,0
2017-04-07T04:14:00.627Z,0
2017-04-07T04:15:09.889Z,0
2017-04-07T04:16:18.935Z,0
2017-04-07T04:17:27.973Z,0
2017-04-07T04:18:36.929Z,0
2017-04-07T04:19:45.885Z,0
2017-04-07T04:20:55.142Z,0
2017-04-07T04:22:04.092Z,0
2017-04-07T04:23:13.041Z,0
2017-04-07T04:24:22.166Z,0
2017-04-07T04:25:31.205Z,0
2017-04-07T04:26:40.456Z,0
2017-04-07T04:27:49.408Z,0
2017-04-07T04:28:58.368Z,0
2017-04-07T04:30:07.413Z,0
2017-04-07T04:31:16.363Z,0
2017-04-07T04:32:25.612Z,0
2017-04-07T04:33:34.572Z,0
2017-04-07T04:34:43.528Z,0
2017-04-07T04:35:52.482Z,0
2017-04-07T04:37:01.439Z,0
2017-04-07T04:38:10.778Z,0
2017-04-07T04:39:19.731Z,0
2017-04-07T04:40:28.689Z,0
2017-04-07T04:41:37.978Z,0
2017-04-07T04:42:46.934Z,0
2017-04-07T04:43:56.187Z,0
2017-04-07T04:45:05.134Z,0
2017-04-07T04:46:14.084Z,0
2017-04-07T04:47:23.041Z,0
2017-04-07T04:48:31.992Z,0
2017-04-07T04:49:41.325Z,0
2017-04-07T04:50:50.282Z,0
2017-04-07T04:51:59.246Z,0
2017-04-07T04:53:08.200Z,0
2017-04-07T04:54:17.158Z,0
2017-04-07T04:55:26.411Z,0
2017-04-07T04:56:35.362Z,5
2017-04-07T04:57:44.404Z,0
2017-04-07T04:58:53.445Z,0
2017-04-07T05:00:02.395Z,0
2017-04-07T05:01:11.650Z,5
2017-04-07T05:02:20.604Z,0
2017-04-07T05:03:29.554Z,5
2017-04-07T05:04:38.505Z,5
2017-04-07T05:05:47.459Z,5
2017-04-07T05:06:56.658Z,5
2017-04-07T05:08:05.700Z,5
2017-04-07T05:09:14.771Z,5
2017-04-07T05:10:23.821Z,5
2017-04-07T05:11:32.804Z,5
2017-04-07T05:12:42.007Z,5
2017-04-07T05:13:50.955Z,5
2017-04-07T05:14:59.909Z,5
2017-04-07T05:16:08.946Z,5
2017-04-07T05:17:17.983Z,5
2017-04-07T05:18:27.182Z,5
2017-04-07T05:19:36.131Z,10
2017-04-07T05:20:45.084Z,5
2017-04-07T05:21:54.044Z,5
2017-04-07T05:23:03.084Z,5
2017-04-07T05:24:12.289Z,5
2017-04-07T05:25:21.239Z,5
2017-04-07T05:26:30.187Z,5
2017-04-07T05:27:39.143Z,5
2017-04-07T05:28:48.090Z,5
2017-04-07T05:29:57.341Z,5
2017-04-07T05:31:06.293Z,5
2017-04-07T05:32:15.249Z,5
2017-04-07T05:33:24.205Z,5
2017-04-07T05:34:33.151Z,10
2017-04-07T05:35:42.728Z,5
2017-04-07T05:36:51.763Z,5
2017-04-07T05:38:00.713Z,5
2017-04-07T05:39:09.668Z,10
2017-04-07T05:40:18.622Z,10
2017-04-07T05:41:27.875Z,10
2017-04-07T05:42:36.914Z,10
2017-04-07T05:43:45.866Z,10
2017-04-07T05:44:54.820Z,10
2017-04-07T05:46:03.772Z,10
2017-04-07T05:47:12.975Z,10
2017-04-07T05:48:22.016Z,15
2017-04-07T05:49:30.967Z,10
2017-04-07T05:50:39.918Z,10
2017-04-07T05:51:48.870Z,10
2017-04-07T05:52:58.075Z,10
2017-04-07T05:54:07.053Z,10
2017-04-07T05:55:16.088Z,15
2017-04-07T05:56:25.128Z,15
2017-04-07T05:57:34.081Z,15
2017-04-07T05:58:43.282Z,15
2017-04-07T05:59:52.574Z,15
2017-04-07T06:01:01.857Z,15
2017-04-07T06:02:10.810Z,15
2017-04-07T06:03:19.764Z,15
2017-04-07T06:04:29.017Z,15
2017-04-07T06:05:37.976Z,20
2017-04-07T06:06:47.026Z,15
2017-04-07T06:07:55.982Z,20
2017-04-07T06:09:05.400Z,20
2017-04-07T06:10:14.685Z,15
2017-04-07T06:11:23.643Z,20
2017-04-07T06:12:32.602Z,20
2017-04-07T06:13:41.683Z,20
2017-04-07T06:14:50.856Z,20
2017-04-07T06:16:00.449Z,25
2017-04-07T06:17:09.409Z,15
2017-04-07T06:18:18.395Z,20
2017-04-07T06:19:27.681Z,25
2017-04-07T06:20:36.776Z,20
2017-04-07T06:21:45.989Z,20
2017-04-07T06:22:54.944Z,20
2017-04-07T06:24:04.002Z,20
2017-04-07T06:25:12.956Z,25
2017-04-07T06:26:21.916Z,20
2017-04-07T06:27:31.169Z,25
2017-04-07T06:28:40.256Z,20
2017-04-07T06:29:49.209Z,20
2017-04-07T06:30:58.164Z,25
2017-04-07T06:32:07.138Z,20
2017-04-07T06:33:16.352Z,20
2017-04-07T06:34:25.309Z,20
2017-04-07T06:35:34.262Z,20
2017-04-07T06:36:43.229Z,20
2017-04-07T06:37:52.192Z,20
2017-04-07T06:39:01.482Z,20
2017-04-07T06:40:10.524Z,25
2017-04-07T06:41:19.476Z,25
2017-04-07T06:42:28.429Z,25
2017-04-07T06:43:37.502Z,25
2017-04-07T06:44:46.707Z,20
2017-04-07T06:45:55.667Z,25
2017-04-07T06:47:04.621Z,25
2017-04-07T06:48:13.569Z,25
2017-04-07T06:49:22.529Z,25
2017-04-07T06:50:31.732Z,25
2017-04-07T06:51:40.725Z,20
2017-04-07T06:52:49.681Z,20
2017-04-07T06:53:58.961Z,25
2017-04-07T06:55:07.914Z,25
2017-04-07T06:56:17.120Z,25
2017-04-07T06:57:26.073Z,25
2017-04-07T06:58:35.113Z,25
2017-04-07T06:59:44.060Z,20
2017-04-07T07:00:53.023Z,20
2017-04-07T07:02:02.223Z,25
2017-04-07T07:03:11.263Z,25
2017-04-07T07:04:20.300Z,30
2017-04-07T07:05:29.258Z,30
2017-04-07T07:06:38.206Z,25
2017-04-07T07:07:47.461Z,25
2017-04-07T07:08:56.414Z,25
2017-04-07T07:10:05.694Z,25
2017-04-07T07:11:14.738Z,35
2017-04-07T07:12:23.691Z,40
2017-04-07T07:13:32.893Z,40
2017-04-07T07:14:41.928Z,45
2017-04-07T07:15:50.878Z,45
2017-04-07T07:16:59.829Z,35
2017-04-07T07:18:08.784Z,35
2017-04-07T07:19:17.986Z,40
2017-04-07T07:20:27.035Z,40
2017-04-07T07:21:36.076Z,40
2017-04-07T07:22:45.231Z,45
2017-04-07T07:23:54.187Z,35
2017-04-07T07:25:03.439Z,35
2017-04-07T07:26:12.481Z,40
2017-04-07T07:27:21.431Z,35
2017-04-07T07:28:30.383Z,35
2017-04-07T07:29:39.342Z,35
2017-04-07T07:30:48.546Z,35
2017-04-07T07:31:57.507Z,40
2017-04-07T07:33:06.460Z,45
2017-04-07T07:34:15.503Z,50
2017-04-07T07:35:24.451Z,50
2017-04-07T07:36:33.671Z,50
2017-04-07T07:37:43.028Z,45
2017-04-07T07:38:51.982Z,45
2017-04-07T07:40:01.027Z,45
2017-04-07T07:41:09.978Z,55
2017-04-07T07:42:19.182Z,60
2017-04-07T07:43:28.308Z,60
2017-04-07T07:44:37.440Z,65
2017-04-07T07:45:46.482Z,70
2017-04-07T07:46:55.433Z,60
2017-04-07T07:48:04.638Z,55
2017-04-07T07:49:13.590Z,55
2017-04-07T07:50:22.634Z,60
2017-04-07T07:51:31.583Z,60
2017-04-07T07:52:40.536Z,70
2017-04-07T07:53:49.739Z,90
2017-04-07T07:54:58.690Z,90
2017-04-07T07:56:07.647Z,80
2017-04-07T07:57:16.597Z,85
2017-04-07T07:58:25.548Z,90
2017-04-07T07:59:34.750Z,85
2017-04-07T08:00:43.703Z,90
2017-04-07T08:01:52.656Z,90
2017-04-07T08:03:01.604Z,90
2017-04-07T08:04:10.556Z,95
2017-04-07T08:05:19.848Z,80
2017-04-07T08:06:28.802Z,60
2017-04-07T08:07:37.752Z,65
2017-04-07T08:08:46.793Z,75
2017-04-07T08:09:55.836Z,75
2017-04-07T08:11:05.042Z,65
2017-04-07T08:12:14.082Z,70
2017-04-07T08:13:23.372Z,70
2017-04-07T08:14:32.324Z,65
2017-04-07T08:15:41.272Z,65
2017-04-07T08:16:50.530Z,65
2017-04-07T08:17:59.572Z,60
2017-04-07T08:19:08.522Z,55
2017-04-07T08:20:17.487Z,65
2017-04-07T08:21:26.440Z,75
2017-04-07T08:22:35.695Z,70
2017-04-07T08:23:44.650Z,70
2017-04-07T08:24:53.687Z,75
2017-04-07T08:26:02.638Z,90
2017-04-07T08:27:11.595Z,90
2017-04-07T08:28:20.808Z,95
2017-04-07T08:29:30.085Z,75
2017-04-07T08:30:39.122Z,85
2017-04-07T08:31:48.074Z,80
2017-04-07T08:32:57.026Z,65
2017-04-07T08:34:06.228Z,65
2017-04-07T08:35:15.179Z,70
2017-04-07T08:36:24.131Z,70
2017-04-07T08:37:33.089Z,70
2017-04-07T08:38:42.044Z,55
2017-04-07T08:39:51.249Z,70
2017-04-07T08:41:00.295Z,55
2017-04-07T08:42:09.336Z,60
2017-04-07T08:43:18.373Z,70
2017-04-07T08:44:27.357Z,55
2017-04-07T08:45:36.611Z,60
2017-04-07T08:46:45.567Z,60
2017-04-07T08:47:54.511Z,70
2017-04-07T08:49:03.466Z,70
2017-04-07T08:50:12.416Z,70
2017-04-07T08:51:21.707Z,75
2017-04-07T08:52:30.658Z,80
2017-04-07T08:53:39.610Z,85
2017-04-07T08:54:48.566Z,75
2017-04-07T08:55:57.521Z,80
2017-04-07T08:57:06.723Z,75
2017-04-07T08:58:15.673Z,85
2017-04-07T08:59:24.629Z,80
2017-04-07T09:00:33.585Z,95
2017-04-07T09:01:42.536Z,70
2017-04-07T09:02:51.792Z,80
2017-04-07T09:04:00.738Z,75
2017-04-07T09:05:09.695Z,55
2017-04-07T09:06:18.738Z,55
2017-04-07T09:07:27.701Z,55
2017-04-07T09:08:36.910Z,75
2017-04-07T09:09:45.862Z,65
2017-04-07T09:10:55.227Z,75
2017-04-07T09:12:04.182Z,70
2017-04-07T09:13:13.462Z,75
2017-04-07T09:14:22.661Z,65
2017-04-07T09:15:31.616Z,55
2017-04-07T09:16:40.567Z,60
2017-04-07T09:17:49.604Z,60
2017-04-07T09:18:58.553Z,65
2017-04-07T09:20:07.819Z,75
2017-04-07T09:21:16.772Z,65
2017-04-07T09:22:25.723Z,60
2017-04-07T09:23:34.677Z,70
2017-04-07T09:24:43.632Z,80
2017-04-07T09:25:52.845Z,75
2017-04-07T09:27:01.796Z,85
2017-04-07T09:28:10.754Z,70
2017-04-07T09:29:19.706Z,70
2017-04-07T09:30:28.662Z,65
2017-04-07T09:31:37.915Z,70
2017-04-07T09:32:46.871Z,75
2017-04-07T09:33:55.908Z,80
2017-04-07T09:35:04.857Z,75
2017-04-07T09:36:13.901Z,85
2017-04-07T09:37:23.110Z,80
2017-04-07T09:38:32.058Z,95
2017-04-07T09:39:41.014Z,100
2017-04-07T09:40:49.965Z,95
2017-04-07T09:41:59.003Z,80
2017-04-07T09:43:08.210Z,95
2017-04-07T09:44:17.163Z,85
2017-04-07T09:45:26.119Z,100
2017-04-07T09:46:35.071Z,110
2017-04-07T09:47:44.117Z,100
2017-04-07T09:48:53.317Z,110
2017-04-07T09:50:02.356Z,105
2017-04-07T09:51:11.307Z,110
2017-04-07T09:52:20.262Z,110
2017-04-07T09:53:29.295Z,105
2017-04-07T09:54:38.545Z,100
2017-04-07T09:55:47.498Z,95
2017-04-07T09:56:56.456Z,80
2017-04-07T09:58:05.409Z,105
2017-04-07T09:59:14.362Z,95
2017-04-07T10:00:23.582Z,100
2017-04-07T10:01:32.627Z,90
2017-04-07T10:02:41.611Z,95
2017-04-07T10:03:50.590Z,100
2017-04-07T10:04:59.557Z,100
2017-04-07T10:06:08.762Z,85
2017-04-07T10:07:17.722Z,100
2017-04-07T10:08:26.674Z,90
2017-04-07T10:09:35.620Z,100
2017-04-07T10:10:44.682Z,105
2017-04-07T10:11:53.885Z,100
2017-04-07T10:13:02.838Z,85
2017-04-07T10:14:11.794Z,85
2017-04-07T10:15:20.744Z,100
2017-04-07T10:16:29.700Z,95
2017-04-07T10:17:38.951Z,100
2017-04-07T10:18:47.994Z,90
2017-04-07T10:19:56.947Z,95
2017-04-07T10:21:05.898Z,95
2017-04-07T10:22:14.856Z,95
2017-04-07T10:23:24.061Z,75
2017-04-07T10:24:33.019Z,80
2017-04-07T10:25:41.967Z,80
2017-04-07T10:26:50.918Z,100
2017-04-07T10:27:59.865Z,85
2017-04-07T10:29:09.157Z,85
2017-04-07T10:30:18.286Z,100
2017-04-07T10:31:27.565Z,100
2017-04-07T10:32:36.521Z,100
2017-04-07T10:33:45.477Z,105
2017-04-07T10:34:54.730Z,95
2017-04-07T10:36:03.684Z,90
2017-04-07T10:37:12.637Z,95
2017-04-07T10:38:21.594Z,85
2017-04-07T10:39:30.548Z,85
2017-04-07T10:40:39.804Z,95
2017-04-07T10:41:48.754Z,85
2017-04-07T10:42:57.879Z,80
2017-04-07T10:44:06.832Z,80
2017-04-07T10:45:15.876Z,95
2017-04-07T10:46:25.080Z,95
2017-04-07T10:47:34.046Z,95
2017-04-07T10:48:42.999Z,100
2017-04-07T10:49:51.958Z,100
2017-04-07T10:51:00.917Z,110
2017-04-07T10:52:10.170Z,120
2017-04-07T10:53:19.126Z,110
2017-04-07T10:54:28.079Z,105
2017-04-07T10:55:37.034Z,130
2017-04-07T10:56:45.986Z,150
2017-04-07T10:57:55.239Z,145
2017-04-07T10:59:04.199Z,135
2017-04-07T11:00:13.159Z,155
2017-04-07T11:01:22.116Z,155
2017-04-07T11:02:31.071Z,130
2017-04-07T11:03:40.272Z,115
2017-04-07T11:04:49.227Z,115
2017-04-07T11:05:58.191Z,135
2017-04-07T11:07:07.147Z,115
2017-04-07T11:08:16.095Z,140
2017-04-07T11:09:25.388Z,120
2017-04-07T11:10:34.344Z,120
2017-04-07T11:11:43.298Z,120
2017-04-07T11:12:52.247Z,90
2017-04-07T11:14:01.197Z,125
2017-04-07T11:15:10.411Z,110
2017-04-07T11:16:19.448Z,105
2017-04-07T11:17:28.400Z,115
2017-04-07T11:18:37.359Z,120
2017-04-07T11:19:46.310Z,110
2017-04-07T11:20:55.515Z,115
2017-04-07T11:22:04.471Z,100
2017-04-07T11:23:13.429Z,110
2017-04-07T11:24:22.379Z,135
2017-04-07T11:25:31.360Z,105
2017-04-07T11:26:40.903Z,115
2017-04-07T11:27:49.855Z,125
2017-04-07T11:28:58.848Z,85
2017-04-07T11:30:07.804Z,110
2017-04-07T11:31:16.841Z,170
2017-04-07T11:32:26.046Z,125
2017-04-07T11:33:35.084Z,105
2017-04-07T11:34:44.039Z,140
2017-04-07T11:35:53.000Z,155
2017-04-07T11:37:01.962Z,160
2017-04-07T11:38:11.177Z,115
2017-04-07T11:39:20.129Z,105
2017-04-07T11:40:29.084Z,105
2017-04-07T11:41:38.045Z,165
2017-04-07T11:42:47.088Z,130
2017-04-07T11:43:56.295Z,100
2017-04-07T11:45:05.587Z,85
2017-04-07T11:46:14.539Z,100
2017-04-07T11:47:23.491Z,140
2017-04-07T11:48:32.451Z,135
2017-04-07T11:49:41.653Z,110
2017-04-07T11:50:50.613Z,100
2017-04-07T11:51:59.570Z,110
2017-04-07T11:53:08.528Z,100
2017-04-07T11:54:17.485Z,110
2017-04-07T11:55:26.703Z,120
2017-04-07T11:56:35.752Z,90
2017-04-07T11:57:44.803Z,145
2017-04-07T11:58:53.768Z,95
2017-04-07T12:00:02.724Z,110
2017-04-07T12:01:12.020Z,100
2017-04-07T12:02:20.980Z,125
2017-04-07T12:03:29.943Z,130
2017-04-07T12:04:38.900Z,95
2017-04-07T12:05:47.871Z,120
2017-04-07T12:06:57.072Z,130
2017-04-07T12:08:06.027Z,120
2017-04-07T12:09:14.986Z,95
2017-04-07T12:10:23.938Z,115
2017-04-07T12:11:32.896Z,100
2017-04-07T12:12:42.149Z,115
2017-04-07T12:13:51.102Z,105
2017-04-07T12:15:00.061Z,90
2017-04-07T12:16:09.108Z,80
2017-04-07T12:17:18.065Z,90
2017-04-07T12:18:27.319Z,105
2017-04-07T12:19:36.284Z,95
2017-04-07T12:20:45.242Z,70
2017-04-07T12:21:54.214Z,85
2017-04-07T12:23:03.169Z,100
2017-04-07T12:24:12.378Z,120
2017-04-07T12:25:21.335Z,110
2017-04-07T12:26:30.379Z,85
2017-04-07T12:27:39.339Z,85
2017-04-07T12:28:48.303Z,100
2017-04-07T12:29:57.646Z,110
2017-04-07T12:31:06.599Z,100
2017-04-07T12:32:15.560Z,105
2017-04-07T12:33:24.521Z,125
2017-04-07T12:34:33.475Z,120
2017-04-07T12:35:42.682Z,100
2017-04-07T12:36:51.636Z,105
2017-04-07T12:38:00.610Z,110
2017-04-07T12:39:09.908Z,100
2017-04-07T12:40:18.860Z,105
2017-04-07T12:41:28.067Z,95
2017-04-07T12:42:37.121Z,90
2017-04-07T12:43:46.089Z,100
2017-04-07T12:44:55.044Z,95
2017-04-07T12:46:04.001Z,80
2017-04-07T12:47:13.346Z,90
2017-04-07T12:48:22.486Z,65
2017-04-07T12:49:31.442Z,80
2017-04-07T12:50:40.401Z,80
2017-04-07T12:51:49.369Z,80
2017-04-07T12:52:58.574Z,70
2017-04-07T12:54:07.868Z,75
2017-04-07T12:55:16.823Z,60
2017-04-07T12:56:25.861Z,80
2017-04-07T12:57:34.823Z,70
2017-04-07T12:58:44.077Z,60
2017-04-07T12:59:53.030Z,70
2017-04-07T13:01:01.990Z,70
2017-04-07T13:02:10.947Z,75
2017-04-07T13:03:19.907Z,80
2017-04-07T13:04:29.114Z,75
2017-04-07T13:05:38.157Z,80
2017-04-07T13:06:47.112Z,65
2017-04-07T13:07:56.073Z,70
2017-04-07T13:09:05.030Z,70
2017-04-07T13:10:14.291Z,70
2017-04-07T13:11:23.335Z,80
2017-04-07T13:12:32.289Z,80
2017-04-07T13:13:41.247Z,65
2017-04-07T13:14:50.199Z,65
2017-04-07T13:16:00.163Z,80
2017-04-07T13:17:09.205Z,65
2017-04-07T13:18:18.159Z,65
2017-04-07T13:19:27.111Z,70
2017-04-07T13:20:36.085Z,80
2017-04-07T13:21:45.342Z,65
2017-04-07T13:22:54.298Z,70
2017-04-07T13:24:03.276Z,75
2017-04-07T13:25:12.233Z,75
2017-04-07T13:26:21.190Z,70
2017-04-07T13:27:30.399Z,55
2017-04-07T13:28:39.357Z,60
2017-04-07T13:29:48.400Z,55
2017-04-07T13:30:57.362Z,55
2017-04-07T13:32:06.346Z,55
2017-04-07T13:33:15.567Z,60
2017-04-07T13:34:24.617Z,55
2017-04-07T13:35:33.573Z,65
2017-04-07T13:36:42.531Z,65
2017-04-07T13:37:51.757Z,80
2017-04-07T13:39:01.107Z,80
2017-04-07T13:40:10.063Z,65
2017-04-07T13:41:19.024Z,65
2017-04-07T13:42:27.984Z,70
2017-04-07T13:43:37.261Z,95
2017-04-07T13:44:46.474Z,85
2017-04-07T13:45:55.435Z,95
2017-04-07T13:47:04.394Z,105
2017-04-07T13:48:13.356Z,95
2017-04-07T13:49:22.321Z,75
2017-04-07T13:50:31.534Z,80
2017-04-07T13:51:40.486Z,90
2017-04-07T13:52:49.765Z,90
2017-04-07T13:53:58.727Z,95
2017-04-07T13:55:07.681Z,95
2017-04-07T13:56:16.890Z,95
2017-04-07T13:57:25.842Z,85
2017-04-07T13:58:34.802Z,95
2017-04-07T13:59:43.758Z,100
2017-04-07T14:00:52.714Z,110
2017-04-07T14:02:01.973Z,110
2017-04-07T14:03:10.930Z,110
2017-04-07T14:04:19.887Z,110
2017-04-07T14:05:28.837Z,130
2017-04-07T14:06:37.793Z,135
2017-04-07T14:07:47.003Z,120
2017-04-07T14:08:56.045Z,90
2017-04-07T14:10:05.002Z,95
2017-04-07T14:11:13.980Z,80
2017-04-07T14:12:22.940Z,65
2017-04-07T14:13:32.189Z,65
2017-04-07T14:14:41.558Z,65
2017-04-07T14:15:50.520Z,70
2017-04-07T14:16:59.474Z,80
2017-04-07T14:18:08.516Z,80
2017-04-07T14:19:17.725Z,75
2017-04-07T14:20:26.687Z,65
2017-04-07T14:21:35.649Z,60
2017-04-07T14:22:44.609Z,60
2017-04-07T14:23:53.563Z,70
2017-04-07T14:25:02.762Z,65
2017-04-07T14:26:12.052Z,85
2017-04-07T14:27:21.012Z,80
2017-04-07T14:28:30.052Z,70
2017-04-07T14:29:39.009Z,80
2017-04-07T14:30:48.216Z,65
2017-04-07T14:31:57.177Z,65
2017-04-07T14:33:06.138Z,60
2017-04-07T14:34:15.095Z,60
2017-04-07T14:35:24.051Z,60
2017-04-07T14:36:33.253Z,50
2017-04-07T14:37:42.204Z,55
2017-04-07T14:38:51.251Z,55
2017-04-07T14:40:00.209Z,55
2017-04-07T14:41:09.163Z,55
2017-04-07T14:42:18.387Z,55
2017-04-07T14:43:27.430Z,60
2017-04-07T14:44:36.476Z,60
2017-04-07T14:45:45.465Z,55
2017-04-07T14:46:54.421Z,55
2017-04-07T14:48:03.627Z,50
2017-04-07T14:49:12.918Z,45
2017-04-07T14:50:21.875Z,40
2017-04-07T14:51:30.832Z,35
2017-04-07T14:52:39.782Z,35
2017-04-07T14:53:48.981Z,55
2017-04-07T14:54:58.020Z,50
2017-04-07T14:56:07.063Z,50
2017-04-07T14:57:16.015Z,40
2017-04-07T14:58:25.000Z,40
2017-04-07T14:59:34.257Z,40
2017-04-07T15:00:43.211Z,40
2017-04-07T15:01:52.167Z,45
2017-04-07T15:03:01.121Z,40
2017-04-07T15:04:10.079Z,40
2017-04-07T15:05:19.612Z,45
2017-04-07T15:06:28.568Z,55
2017-04-07T15:07:37.518Z,45
2017-04-07T15:08:46.473Z,45
2017-04-07T15:09:55.434Z,45
2017-04-07T15:11:04.725Z,40
2017-04-07T15:12:13.684Z,40
2017-04-07T15:13:22.638Z,40
2017-04-07T15:14:31.594Z,40
2017-04-07T15:15:40.637Z,30
2017-04-07T15:16:49.897Z,30
2017-04-07T15:17:58.849Z,30
2017-04-07T15:19:07.802Z,30
2017-04-07T15:20:16.755Z,30
2017-04-07T15:21:25.704Z,30
2017-04-07T15:22:34.918Z,35
2017-04-07T15:23:43.871Z,30
2017-04-07T15:24:52.821Z,25
2017-04-07T15:26:01.777Z,30
2017-04-07T15:27:10.735Z,35
2017-04-07T15:28:19.982Z,40
2017-04-07T15:29:28.932Z,35
2017-04-07T15:30:37.901Z,30
2017-04-07T15:31:46.858Z,30
2017-04-07T15:32:56.132Z,35
2017-04-07T15:34:05.341Z,40
2017-04-07T15:35:14.299Z,40
2017-04-07T15:36:23.251Z,45
2017-04-07T15:37:32.207Z,35
2017-04-07T15:38:41.185Z,35
2017-04-07T15:39:50.482Z,30
2017-04-07T15:40:59.436Z,35
2017-04-07T15:42:08.395Z,35
2017-04-07T15:43:17.348Z,25
2017-04-07T15:44:26.299Z,25
2017-04-07T15:45:35.512Z,30
2017-04-07T15:46:44.468Z,30
2017-04-07T15:47:53.424Z,30
2017-04-07T15:49:02.394Z,40
2017-04-07T15:50:11.352Z,30
2017-04-07T15:51:20.644Z,25
2017-04-07T15:52:29.785Z,20
2017-04-07T15:53:38.749Z,25
2017-04-07T15:54:47.704Z,25
2017-04-07T15:55:56.664Z,25
2017-04-07T15:57:05.921Z,15
2017-04-07T15:58:14.890Z,20
2017-04-07T15:59:23.847Z,20
2017-04-07T16:00:32.890Z,15
2017-04-07T16:01:41.942Z,20
2017-04-07T16:02:51.237Z,20
2017-04-07T16:04:00.292Z,15
2017-04-07T16:05:09.248Z,20
2017-04-07T16:06:18.206Z,15
2017-04-07T16:07:27.158Z,20
2017-04-07T16:08:36.446Z,15
2017-04-07T16:09:45.495Z,20
2017-04-07T16:10:54.862Z,15
2017-04-07T16:12:03.816Z,10
2017-04-07T16:13:12.772Z,15
2017-04-07T16:14:22.052Z,15
2017-04-07T16:15:31.045Z,10
2017-04-07T16:16:40.001Z,10
2017-04-07T16:17:48.965Z,10
2017-04-07T16:18:57.923Z,10
2017-04-07T16:20:07.131Z,15
2017-04-07T16:21:16.176Z,15
2017-04-07T16:22:25.462Z,15
2017-04-07T16:23:34.507Z,15
2017-04-07T16:24:43.463Z,10
2017-04-07T16:25:52.667Z,10
2017-04-07T16:27:01.625Z,10
2017-04-07T16:28:10.675Z,10
2017-04-07T16:29:19.807Z,10
2017-04-07T16:30:29.097Z,10
2017-04-07T16:31:38.352Z,10